Back to Top

Language: 

My Weather Underground Personal Weather Station Historical Data with Graphs...

Delerius Weather Station Historical Data
Daily Summary for April 23, 2017 Units:  Both    English   Metric
« Previous Day
Next Day »
Daily Weekly Monthly Yearly Custom
  High: Low: Average:
Temperature: 60.4 °F /  15.8 °C 39.9 °F /  4.4 °C 49.9 °F /  9.9 °C
Dew Point: 42.2 °F /  5.7 °C 33.6 °F /  0.9 °C 37.4 °F /  3 °C
Humidity: 87 % 40 % 64 %
Wind Speed: 12.0 mph /  19.3 km/h - 4.8 mph /  7.7 km/h
Wind Gust: 21.0 mph /  33.8 km/h - -
Wind:- - WNW
Pressure: 30.38 in /  1028.7 hPa 30.10 in /  1019.2 hPa -
Precipitation: 0.00 in /  0 mm    
Historical Graphs
 
 
Tabular Data for April 23, 2017
Time Temperature Dew Point Pressure Wind Wind Speed Wind Gust Humidity Rainfall Rate (Hourly) solar Conditions
00:01 43.3 °F /  6.3 °C 35.3 °F /  1.8 °C 30.38 in /  1028.7 hPa Calm   1.0 mph /  1.6 km/h 73 % 0.00 in /  0 mm 0 W/m2
00:06 43.2 °F /  6.2 °C 35.1 °F /  1.7 °C 30.38 in /  1028.7 hPa Calm     73 % 0.00 in /  0 mm 0 W/m2
00:11 43.0 °F /  6.1 °C 35.3 °F /  1.8 °C 30.38 in /  1028.7 hPa Calm     74 % 0.00 in /  0 mm 0 W/m2
00:16 42.8 °F /  6 °C 35.1 °F /  1.7 °C 30.38 in /  1028.7 hPa Calm   2.0 mph /  3.2 km/h 74 % 0.00 in /  0 mm 0 W/m2
00:21 42.6 °F /  5.9 °C 34.9 °F /  1.6 °C 30.38 in /  1028.7 hPa South 1.0 mph /  1.6 km/h 2.0 mph /  3.2 km/h 74 % 0.00 in /  0 mm 0 W/m2
00:26 42.4 °F /  5.8 °C 35.1 °F /  1.7 °C 30.38 in /  1028.7 hPa Calm   2.0 mph /  3.2 km/h 75 % 0.00 in /  0 mm 0 W/m2
00:31 42.4 °F /  5.8 °C 35.1 °F /  1.7 °C 30.38 in /  1028.7 hPa Calm   3.0 mph /  4.8 km/h 75 % 0.00 in /  0 mm 0 W/m2
00:36 42.4 °F /  5.8 °C 35.4 °F /  1.9 °C 30.38 in /  1028.7 hPa SW 1.0 mph /  1.6 km/h 4.0 mph /  6.4 km/h 76 % 0.00 in /  0 mm 0 W/m2
00:41 42.4 °F /  5.8 °C 35.1 °F /  1.7 °C 30.38 in /  1028.7 hPa WSW 1.0 mph /  1.6 km/h 4.0 mph /  6.4 km/h 75 % 0.00 in /  0 mm 0 W/m2
00:46 42.4 °F /  5.8 °C 35.4 °F /  1.9 °C 30.38 in /  1028.7 hPa Calm   3.0 mph /  4.8 km/h 76 % 0.00 in /  0 mm 0 W/m2
00:51 42.4 °F /  5.8 °C 35.4 °F /  1.9 °C 30.38 in /  1028.7 hPa Calm   1.0 mph /  1.6 km/h 76 % 0.00 in /  0 mm 0 W/m2
00:56 42.3 °F /  5.7 °C 35.9 °F /  2.2 °C 30.38 in /  1028.7 hPa Calm     78 % 0.00 in /  0 mm 0 W/m2
01:01 42.1 °F /  5.6 °C 35.7 °F /  2.1 °C 30.38 in /  1028.7 hPa Calm     78 % 0.00 in /  0 mm 0 W/m2
01:06 42.1 °F /  5.6 °C 36.0 °F /  2.2 °C 30.38 in /  1028.7 hPa Calm   2.0 mph /  3.2 km/h 79 % 0.00 in /  0 mm 0 W/m2
01:11 41.9 °F /  5.5 °C 35.9 °F /  2.2 °C 30.37 in /  1028.3 hPa WSW 1.0 mph /  1.6 km/h 2.0 mph /  3.2 km/h 79 % 0.00 in /  0 mm 0 W/m2
01:17 41.9 °F /  5.5 °C 35.9 °F /  2.2 °C 30.37 in /  1028.3 hPa WSW 1.0 mph /  1.6 km/h 2.0 mph /  3.2 km/h 79 % 0.00 in /  0 mm 0 W/m2
01:22 41.7 °F /  5.4 °C 35.7 °F /  2.1 °C 30.37 in /  1028.3 hPa WSW 1.0 mph /  1.6 km/h 4.0 mph /  6.4 km/h 79 % 0.00 in /  0 mm 0 W/m2
01:27 41.7 °F /  5.4 °C 35.7 °F /  2.1 °C 30.37 in /  1028.3 hPa WSW 2.0 mph /  3.2 km/h 5.0 mph /  8 km/h 79 % 0.00 in /  0 mm 0 W/m2
01:32 41.7 °F /  5.4 °C 35.7 °F /  2.1 °C 30.37 in /  1028.3 hPa WSW 1.0 mph /  1.6 km/h 5.0 mph /  8 km/h 79 % 0.00 in /  0 mm 0 W/m2
01:37 41.5 °F /  5.3 °C 35.5 °F /  1.9 °C 30.37 in /  1028.3 hPa Calm   3.0 mph /  4.8 km/h 79 % 0.00 in /  0 mm 0 W/m2
01:42 41.5 °F /  5.3 °C 35.8 °F /  2.1 °C 30.37 in /  1028.3 hPa Calm   1.0 mph /  1.6 km/h 80 % 0.00 in /  0 mm 0 W/m2
01:47 41.5 °F /  5.3 °C 35.8 °F /  2.1 °C 30.36 in /  1028 hPa Calm   1.0 mph /  1.6 km/h 80 % 0.00 in /  0 mm 0 W/m2
01:52 41.5 °F /  5.3 °C 36.1 °F /  2.3 °C 30.36 in /  1028 hPa Calm   1.0 mph /  1.6 km/h 81 % 0.00 in /  0 mm 0 W/m2
01:57 41.5 °F /  5.3 °C 36.1 °F /  2.3 °C 30.36 in /  1028 hPa Calm   1.0 mph /  1.6 km/h 81 % 0.00 in /  0 mm 0 W/m2
02:02 41.7 °F /  5.4 °C 36.3 °F /  2.4 °C 30.36 in /  1028 hPa Calm   2.0 mph /  3.2 km/h 81 % 0.00 in /  0 mm 0 W/m2
02:07 41.9 °F /  5.5 °C 36.5 °F /  2.5 °C 30.36 in /  1028 hPa Calm   2.0 mph /  3.2 km/h 81 % 0.00 in /  0 mm 0 W/m2
02:12 41.9 °F /  5.5 °C 36.5 °F /  2.5 °C 30.36 in /  1028 hPa WSW 1.0 mph /  1.6 km/h 5.0 mph /  8 km/h 81 % 0.00 in /  0 mm 0 W/m2
02:18 42.1 °F /  5.6 °C 36.7 °F /  2.6 °C 30.36 in /  1028 hPa WSW 3.0 mph /  4.8 km/h 7.0 mph /  11.3 km/h 81 % 0.00 in /  0 mm 0 W/m2
02:23 42.3 °F /  5.7 °C 36.5 °F /  2.5 °C 30.35 in /  1027.7 hPa WSW 3.0 mph /  4.8 km/h 7.0 mph /  11.3 km/h 80 % 0.00 in /  0 mm 0 W/m2
02:28 42.3 °F /  5.7 °C 36.2 °F /  2.3 °C 30.35 in /  1027.7 hPa WSW 3.0 mph /  4.8 km/h 7.0 mph /  11.3 km/h 79 % 0.00 in /  0 mm 0 W/m2
02:33 42.3 °F /  5.7 °C 36.2 °F /  2.3 °C 30.35 in /  1027.7 hPa WSW 2.0 mph /  3.2 km/h 6.0 mph /  9.7 km/h 79 % 0.00 in /  0 mm 0 W/m2
02:38 42.3 °F /  5.7 °C 35.9 °F /  2.2 °C 30.35 in /  1027.7 hPa WSW 1.0 mph /  1.6 km/h 5.0 mph /  8 km/h 78 % 0.00 in /  0 mm 0 W/m2
02:43 42.1 °F /  5.6 °C 35.7 °F /  2.1 °C 30.35 in /  1027.7 hPa Calm   4.0 mph /  6.4 km/h 78 % 0.00 in /  0 mm 0 W/m2
02:48 41.7 °F /  5.4 °C 35.4 °F /  1.9 °C 30.35 in /  1027.7 hPa Calm   4.0 mph /  6.4 km/h 78 % 0.00 in /  0 mm 0 W/m2
02:53 41.5 °F /  5.3 °C 35.2 °F /  1.8 °C 30.35 in /  1027.7 hPa WSW 1.0 mph /  1.6 km/h 3.0 mph /  4.8 km/h 78 % 0.00 in /  0 mm 0 W/m2
02:58 41.2 °F /  5.1 °C 34.8 °F /  1.6 °C 30.35 in /  1027.7 hPa Calm   4.0 mph /  6.4 km/h 78 % 0.00 in /  0 mm 0 W/m2
03:03 41.0 °F /  5 °C 34.7 °F /  1.5 °C 30.35 in /  1027.7 hPa Calm   4.0 mph /  6.4 km/h 78 % 0.00 in /  0 mm 0 W/m2
03:08 40.6 °F /  4.8 °C 34.3 °F /  1.3 °C 30.35 in /  1027.7 hPa Calm   2.0 mph /  3.2 km/h 78 % 0.00 in /  0 mm 0 W/m2
03:13 40.5 °F /  4.7 °C 34.5 °F /  1.4 °C 30.35 in /  1027.7 hPa WSW 1.0 mph /  1.6 km/h 4.0 mph /  6.4 km/h 79 % 0.00 in /  0 mm 0 W/m2
03:18 40.3 °F /  4.6 °C 34.3 °F /  1.3 °C 30.34 in /  1027.3 hPa WSW 1.0 mph /  1.6 km/h 4.0 mph /  6.4 km/h 79 % 0.00 in /  0 mm 0 W/m2
03:23 40.3 °F /  4.6 °C 34.3 °F /  1.3 °C 30.34 in /  1027.3 hPa Calm   2.0 mph /  3.2 km/h 79 % 0.00 in /  0 mm 0 W/m2
03:28 40.1 °F /  4.5 °C 34.1 °F /  1.2 °C 30.34 in /  1027.3 hPa Calm     79 % 0.00 in /  0 mm 0 W/m2
03:33 39.9 °F /  4.4 °C 33.9 °F /  1.1 °C 30.34 in /  1027.3 hPa Calm   2.0 mph /  3.2 km/h 79 % 0.00 in /  0 mm 0 W/m2
03:38 39.9 °F /  4.4 °C 34.2 °F /  1.2 °C 30.34 in /  1027.3 hPa WSW 1.0 mph /  1.6 km/h 5.0 mph /  8 km/h 80 % 0.00 in /  0 mm 0 W/m2
03:43 39.9 °F /  4.4 °C 34.2 °F /  1.2 °C 30.34 in /  1027.3 hPa WSW 1.0 mph /  1.6 km/h 5.0 mph /  8 km/h 80 % 0.00 in /  0 mm 0 W/m2
03:48 39.9 °F /  4.4 °C 34.2 °F /  1.2 °C 30.34 in /  1027.3 hPa Calm   2.0 mph /  3.2 km/h 80 % 0.00 in /  0 mm 0 W/m2
03:53 40.3 °F /  4.6 °C 34.6 °F /  1.4 °C 30.34 in /  1027.3 hPa Calm   2.0 mph /  3.2 km/h 80 % 0.00 in /  0 mm 0 W/m2
03:58 40.3 °F /  4.6 °C 34.6 °F /  1.4 °C 30.34 in /  1027.3 hPa Calm   2.0 mph /  3.2 km/h 80 % 0.00 in /  0 mm 0 W/m2
04:03 40.5 °F /  4.7 °C 34.8 °F /  1.6 °C 30.34 in /  1027.3 hPa Calm   2.0 mph /  3.2 km/h 80 % 0.00 in /  0 mm 0 W/m2
04:08 40.6 °F /  4.8 °C 35.0 °F /  1.7 °C 30.34 in /  1027.3 hPa West 1.0 mph /  1.6 km/h 5.0 mph /  8 km/h 80 % 0.00 in /  0 mm 0 W/m2
04:13 40.8 °F /  4.9 °C 35.1 °F /  1.7 °C 30.33 in /  1027 hPa WNW 1.0 mph /  1.6 km/h 5.0 mph /  8 km/h 80 % 0.00 in /  0 mm 0 W/m2
04:18 41.0 °F /  5 °C 35.3 °F /  1.8 °C 30.33 in /  1027 hPa WNW 2.0 mph /  3.2 km/h 6.0 mph /  9.7 km/h 80 % 0.00 in /  0 mm 0 W/m2
04:23 41.0 °F /  5 °C 35.3 °F /  1.8 °C 30.33 in /  1027 hPa WNW 2.0 mph /  3.2 km/h 7.0 mph /  11.3 km/h 80 % 0.00 in /  0 mm 0 W/m2
04:28 41.2 °F /  5.1 °C 35.2 °F /  1.8 °C 30.33 in /  1027 hPa West 3.0 mph /  4.8 km/h 8.0 mph /  12.9 km/h 79 % 0.00 in /  0 mm 0 W/m2
04:33 41.2 °F /  5.1 °C 35.2 °F /  1.8 °C 30.33 in /  1027 hPa West 2.0 mph /  3.2 km/h 8.0 mph /  12.9 km/h 79 % 0.00 in /  0 mm 0 W/m2
04:39 41.4 °F /  5.2 °C 35.0 °F /  1.7 °C 30.33 in /  1027 hPa West 2.0 mph /  3.2 km/h 6.0 mph /  9.7 km/h 78 % 0.00 in /  0 mm 0 W/m2
04:44 41.4 °F /  5.2 °C 35.0 °F /  1.7 °C 30.33 in /  1027 hPa West 3.0 mph /  4.8 km/h 9.0 mph /  14.5 km/h 78 % 0.00 in /  0 mm 0 W/m2
04:49 41.4 °F /  5.2 °C 35.0 °F /  1.7 °C 30.33 in /  1027 hPa West 3.0 mph /  4.8 km/h 9.0 mph /  14.5 km/h 78 % 0.00 in /  0 mm 0 W/m2
04:54 41.5 °F /  5.3 °C 34.9 °F /  1.6 °C 30.33 in /  1027 hPa West 4.0 mph /  6.4 km/h 8.0 mph /  12.9 km/h 77 % 0.00 in /  0 mm 0 W/m2
04:59 41.5 °F /  5.3 °C 34.9 °F /  1.6 °C 30.33 in /  1027 hPa West 5.0 mph /  8 km/h 9.0 mph /  14.5 km/h 77 % 0.00 in /  0 mm 0 W/m2
05:04 41.7 °F /  5.4 °C 34.7 °F /  1.5 °C 30.33 in /  1027 hPa WSW 5.0 mph /  8 km/h 11.0 mph /  17.7 km/h 76 % 0.00 in /  0 mm 0 W/m2
05:09 42.1 °F /  5.6 °C 35.1 °F /  1.7 °C 30.33 in /  1027 hPa WSW 5.0 mph /  8 km/h 11.0 mph /  17.7 km/h 76 % 0.00 in /  0 mm 0 W/m2
05:14 42.3 °F /  5.7 °C 34.9 °F /  1.6 °C 30.33 in /  1027 hPa WSW 5.0 mph /  8 km/h 9.0 mph /  14.5 km/h 75 % 0.00 in /  0 mm 0 W/m2
05:19 42.1 °F /  5.6 °C 34.7 °F /  1.5 °C 30.33 in /  1027 hPa West 5.0 mph /  8 km/h 9.0 mph /  14.5 km/h 75 % 0.00 in /  0 mm 0 W/m2
05:24 42.1 °F /  5.6 °C 34.7 °F /  1.5 °C 30.32 in /  1026.6 hPa West 4.0 mph /  6.4 km/h 9.0 mph /  14.5 km/h 75 % 0.00 in /  0 mm 0 W/m2
05:29 41.7 °F /  5.4 °C 34.4 °F /  1.3 °C 30.32 in /  1026.6 hPa WNW 3.0 mph /  4.8 km/h 6.0 mph /  9.7 km/h 75 % 0.00 in /  0 mm 0 W/m2
05:34 41.5 °F /  5.3 °C 34.5 °F /  1.4 °C 30.32 in /  1026.6 hPa NW 3.0 mph /  4.8 km/h 6.0 mph /  9.7 km/h 76 % 0.00 in /  0 mm 0 W/m2
05:39 41.4 °F /  5.2 °C 34.7 °F /  1.5 °C 30.32 in /  1026.6 hPa NW 3.0 mph /  4.8 km/h 6.0 mph /  9.7 km/h 77 % 0.00 in /  0 mm 0 W/m2
05:44 41.2 °F /  5.1 °C 34.5 °F /  1.4 °C 30.32 in /  1026.6 hPa NW 3.0 mph /  4.8 km/h 6.0 mph /  9.7 km/h 77 % 0.00 in /  0 mm 5 W/m2
05:49 41.2 °F /  5.1 °C 34.8 °F /  1.6 °C 30.32 in /  1026.6 hPa WNW 3.0 mph /  4.8 km/h 6.0 mph /  9.7 km/h 78 % 0.00 in /  0 mm 5 W/m2
05:54 40.8 °F /  4.9 °C 34.8 °F /  1.6 °C 30.32 in /  1026.6 hPa WNW 2.0 mph /  3.2 km/h 5.0 mph /  8 km/h 79 % 0.00 in /  0 mm 7 W/m2
05:59 40.8 °F /  4.9 °C 34.8 °F /  1.6 °C 30.32 in /  1026.6 hPa WNW 2.0 mph /  3.2 km/h 5.0 mph /  8 km/h 79 % 0.00 in /  0 mm 11 W/m2
06:04 40.6 °F /  4.8 °C 35.3 °F /  1.8 °C 30.32 in /  1026.6 hPa WNW 2.0 mph /  3.2 km/h 5.0 mph /  8 km/h 81 % 0.00 in /  0 mm 14 W/m2
06:09 40.6 °F /  4.8 °C 35.3 °F /  1.8 °C 30.32 in /  1026.6 hPa WNW 3.0 mph /  4.8 km/h 5.0 mph /  8 km/h 81 % 0.00 in /  0 mm 16 W/m2
06:14 40.5 °F /  4.7 °C 35.4 °F /  1.9 °C 30.32 in /  1026.6 hPa WNW 2.0 mph /  3.2 km/h 4.0 mph /  6.4 km/h 82 % 0.00 in /  0 mm 19 W/m2
06:19 40.5 °F /  4.7 °C 35.7 °F /  2.1 °C 30.32 in /  1026.6 hPa WNW 1.0 mph /  1.6 km/h 4.0 mph /  6.4 km/h 83 % 0.00 in /  0 mm 21 W/m2
06:24 40.3 °F /  4.6 °C 35.5 °F /  1.9 °C 30.32 in /  1026.6 hPa WNW 1.0 mph /  1.6 km/h 4.0 mph /  6.4 km/h 83 % 0.00 in /  0 mm 25 W/m2
06:29 40.3 °F /  4.6 °C 35.8 °F /  2.1 °C 30.32 in /  1026.6 hPa WNW 1.0 mph /  1.6 km/h 4.0 mph /  6.4 km/h 84 % 0.00 in /  0 mm 26 W/m2
06:34 40.3 °F /  4.6 °C 35.8 °F /  2.1 °C 30.32 in /  1026.6 hPa WNW 1.0 mph /  1.6 km/h 4.0 mph /  6.4 km/h 84 % 0.00 in /  0 mm 37 W/m2
06:39 40.3 °F /  4.6 °C 35.8 °F /  2.1 °C 30.32 in /  1026.6 hPa WNW 1.0 mph /  1.6 km/h 3.0 mph /  4.8 km/h 84 % 0.00 in /  0 mm 32 W/m2
06:45 40.3 °F /  4.6 °C 36.1 °F /  2.3 °C 30.32 in /  1026.6 hPa Calm   2.0 mph /  3.2 km/h 85 % 0.00 in /  0 mm 33 W/m2
06:50 40.3 °F /  4.6 °C 36.1 °F /  2.3 °C 30.32 in /  1026.6 hPa Calm   2.0 mph /  3.2 km/h 85 % 0.00 in /  0 mm 35 W/m2
06:55 40.3 °F /  4.6 °C 36.4 °F /  2.4 °C 30.32 in /  1026.6 hPa Calm   4.0 mph /  6.4 km/h 86 % 0.00 in /  0 mm 42 W/m2
07:00 40.5 °F /  4.7 °C 36.6 °F /  2.6 °C 30.32 in /  1026.6 hPa WNW 1.0 mph /  1.6 km/h 4.0 mph /  6.4 km/h 86 % 0.00 in /  0 mm 46 W/m2
07:05 40.6 °F /  4.8 °C 36.8 °F /  2.7 °C 30.32 in /  1026.6 hPa WNW 1.0 mph /  1.6 km/h 4.0 mph /  6.4 km/h 86 % 0.00 in /  0 mm 70 W/m2
07:10 41.2 °F /  5.1 °C 37.6 °F /  3.1 °C 30.32 in /  1026.6 hPa WNW 1.0 mph /  1.6 km/h 4.0 mph /  6.4 km/h 87 % 0.00 in /  0 mm 148 W/m2
07:15 41.7 °F /  5.4 °C 38.1 °F /  3.4 °C 30.32 in /  1026.6 hPa WNW 1.0 mph /  1.6 km/h 4.0 mph /  6.4 km/h 87 % 0.00 in /  0 mm 165 W/m2
07:20 42.4 °F /  5.8 °C 38.5 °F /  3.6 °C 30.32 in /  1026.6 hPa WNW 1.0 mph /  1.6 km/h 5.0 mph /  8 km/h 86 % 0.00 in /  0 mm 178 W/m2
07:25 43.3 °F /  6.3 °C 39.1 °F /  3.9 °C 30.32 in /  1026.6 hPa WNW 1.0 mph /  1.6 km/h 5.0 mph /  8 km/h 85 % 0.00 in /  0 mm 193 W/m2
07:30 44.4 °F /  6.9 °C 39.6 °F /  4.2 °C 30.32 in /  1026.6 hPa WNW 2.0 mph /  3.2 km/h 8.0 mph /  12.9 km/h 83 % 0.00 in /  0 mm 202 W/m2
07:35 45.3 °F /  7.4 °C 39.8 °F /  4.3 °C 30.32 in /  1026.6 hPa WNW 3.0 mph /  4.8 km/h 8.0 mph /  12.9 km/h 81 % 0.00 in /  0 mm 216 W/m2
07:40 46.0 °F /  7.8 °C 39.9 °F /  4.4 °C 30.32 in /  1026.6 hPa WNW 2.0 mph /  3.2 km/h 6.0 mph /  9.7 km/h 79 % 0.00 in /  0 mm 232 W/m2
07:45 46.8 °F /  8.2 °C 39.9 °F /  4.4 °C 30.32 in /  1026.6 hPa WNW 2.0 mph /  3.2 km/h 6.0 mph /  9.7 km/h 77 % 0.00 in /  0 mm 244 W/m2
07:50 47.1 °F /  8.4 °C 39.9 °F /  4.4 °C 30.32 in /  1026.6 hPa WNW 3.0 mph /  4.8 km/h 8.0 mph /  12.9 km/h 76 % 0.00 in /  0 mm 258 W/m2
07:55 47.5 °F /  8.6 °C 39.9 °F /  4.4 °C 30.32 in /  1026.6 hPa West 4.0 mph /  6.4 km/h 9.0 mph /  14.5 km/h 75 % 0.00 in /  0 mm 272 W/m2
08:00 48.0 °F /  8.9 °C 40.1 °F /  4.5 °C 30.32 in /  1026.6 hPa West 4.0 mph /  6.4 km/h 9.0 mph /  14.5 km/h 74 % 0.00 in /  0 mm 287 W/m2
08:05 48.4 °F /  9.1 °C 39.8 °F /  4.3 °C 30.32 in /  1026.6 hPa West 6.0 mph /  9.7 km/h 11.0 mph /  17.7 km/h 72 % 0.00 in /  0 mm 304 W/m2
08:10 48.6 °F /  9.2 °C 39.9 °F /  4.4 °C 30.32 in /  1026.6 hPa West 7.0 mph /  11.3 km/h 11.0 mph /  17.7 km/h 72 % 0.00 in /  0 mm 304 W/m2
08:15 48.7 °F /  9.3 °C 40.1 °F /  4.5 °C 30.32 in /  1026.6 hPa West 6.0 mph /  9.7 km/h 13.0 mph /  20.9 km/h 72 % 0.00 in /  0 mm 323 W/m2
08:20 48.9 °F /  9.4 °C 39.9 °F /  4.4 °C 30.32 in /  1026.6 hPa West 6.0 mph /  9.7 km/h 13.0 mph /  20.9 km/h 71 % 0.00 in /  0 mm 343 W/m2
08:25 49.3 °F /  9.6 °C 40.3 °F /  4.6 °C 30.32 in /  1026.6 hPa West 6.0 mph /  9.7 km/h 11.0 mph /  17.7 km/h 71 % 0.00 in /  0 mm 352 W/m2
08:30 49.6 °F /  9.8 °C 39.9 °F /  4.4 °C 30.32 in /  1026.6 hPa West 7.0 mph /  11.3 km/h 11.0 mph /  17.7 km/h 69 % 0.00 in /  0 mm 374 W/m2
08:35 49.8 °F /  9.9 °C 39.7 °F /  4.3 °C 30.32 in /  1026.6 hPa West 8.0 mph /  12.9 km/h 13.0 mph /  20.9 km/h 68 % 0.00 in /  0 mm 338 W/m2
08:40 50.2 °F /  10.1 °C 40.0 °F /  4.4 °C 30.32 in /  1026.6 hPa West 7.0 mph /  11.3 km/h 13.0 mph /  20.9 km/h 68 % 0.00 in /  0 mm 415 W/m2
08:45 50.5 °F /  10.3 °C 40.0 °F /  4.4 °C 30.32 in /  1026.6 hPa WNW 7.0 mph /  11.3 km/h 11.0 mph /  17.7 km/h 67 % 0.00 in /  0 mm 383 W/m2
08:46 50.5 °F /  10.3 °C 40.0 °F /  4.4 °C 30.31 in /  1026.3 hPa WNW 7.0 mph /  11.3 km/h 11.0 mph /  17.7 km/h 67 % 0.00 in /  0 mm 383 W/m2
08:50 50.9 °F /  10.5 °C 39.9 °F /  4.4 °C 30.31 in /  1026.3 hPa WNW 7.0 mph /  11.3 km/h 11.0 mph /  17.7 km/h 66 % 0.00 in /  0 mm 455 W/m2
08:56 51.3 °F /  10.7 °C 39.9 °F /  4.4 °C 30.31 in /  1026.3 hPa WNW 7.0 mph /  11.3 km/h 11.0 mph /  17.7 km/h 65 % 0.00 in /  0 mm 490 W/m2
09:01 51.8 °F /  11 °C 40.0 °F /  4.4 °C 30.31 in /  1026.3 hPa WNW 5.0 mph /  8 km/h 9.0 mph /  14.5 km/h 64 % 0.00 in /  0 mm 541 W/m2
09:06 52.3 °F /  11.3 °C 40.1 °F /  4.5 °C 30.31 in /  1026.3 hPa WNW 5.0 mph /  8 km/h 12.0 mph /  19.3 km/h 63 % 0.00 in /  0 mm 510 W/m2
09:11 52.5 °F /  11.4 °C 40.7 °F /  4.8 °C 30.31 in /  1026.3 hPa WNW 6.0 mph /  9.7 km/h 12.0 mph /  19.3 km/h 64 % 0.00 in /  0 mm 485 W/m2
09:16 52.9 °F /  11.6 °C 40.2 °F /  4.6 °C 30.31 in /  1026.3 hPa NW 7.0 mph /  11.3 km/h 13.0 mph /  20.9 km/h 62 % 0.00 in /  0 mm 381 W/m2
09:21 52.9 °F /  11.6 °C 39.8 °F /  4.3 °C 30.31 in /  1026.3 hPa NW 6.0 mph /  9.7 km/h 13.0 mph /  20.9 km/h 61 % 0.00 in /  0 mm 425 W/m2
09:26 53.1 °F /  11.7 °C 40.4 °F /  4.7 °C 30.31 in /  1026.3 hPa WNW 5.0 mph /  8 km/h 10.0 mph /  16.1 km/h 62 % 0.00 in /  0 mm 158 W/m2
09:31 53.1 °F /  11.7 °C 40.4 °F /  4.7 °C 30.31 in /  1026.3 hPa WNW 5.0 mph /  8 km/h 10.0 mph /  16.1 km/h 62 % 0.00 in /  0 mm 330 W/m2
09:36 52.9 °F /  11.6 °C 39.8 °F /  4.3 °C 30.31 in /  1026.3 hPa NW 5.0 mph /  8 km/h 11.0 mph /  17.7 km/h 61 % 0.00 in /  0 mm 158 W/m2
09:41 52.5 °F /  11.4 °C 39.9 °F /  4.4 °C 30.31 in /  1026.3 hPa NW 5.0 mph /  8 km/h 11.0 mph /  17.7 km/h 62 % 0.00 in /  0 mm 216 W/m2
09:46 52.7 °F /  11.5 °C 39.6 °F /  4.2 °C 30.31 in /  1026.3 hPa NW 5.0 mph /  8 km/h 10.0 mph /  16.1 km/h 61 % 0.00 in /  0 mm 603 W/m2
09:51 52.9 °F /  11.6 °C 38.9 °F /  3.8 °C 30.31 in /  1026.3 hPa WNW 6.0 mph /  9.7 km/h 10.0 mph /  16.1 km/h 59 % 0.00 in /  0 mm 554 W/m2
09:56 53.2 °F /  11.8 °C 39.7 °F /  4.3 °C 30.31 in /  1026.3 hPa WNW 6.0 mph /  9.7 km/h 11.0 mph /  17.7 km/h 60 % 0.00 in /  0 mm 671 W/m2
10:01 53.8 °F /  12.1 °C 39.8 °F /  4.3 °C 30.31 in /  1026.3 hPa WNW 6.0 mph /  9.7 km/h 13.0 mph /  20.9 km/h 59 % 0.00 in /  0 mm 679 W/m2
10:06 54.3 °F /  12.4 °C 40.3 °F /  4.6 °C 30.31 in /  1026.3 hPa NW 5.0 mph /  8 km/h 13.0 mph /  20.9 km/h 59 % 0.00 in /  0 mm 271 W/m2
10:11 54.7 °F /  12.6 °C 40.2 °F /  4.6 °C 30.31 in /  1026.3 hPa NW 4.0 mph /  6.4 km/h 10.0 mph /  16.1 km/h 58 % 0.00 in /  0 mm 761 W/m2
10:16 54.9 °F /  12.7 °C 39.5 °F /  4.2 °C 30.31 in /  1026.3 hPa NW 5.0 mph /  8 km/h 10.0 mph /  16.1 km/h 56 % 0.00 in /  0 mm 258 W/m2
10:21 54.9 °F /  12.7 °C 39.5 °F /  4.2 °C 30.31 in /  1026.3 hPa NNW 6.0 mph /  9.7 km/h 10.0 mph /  16.1 km/h 56 % 0.00 in /  0 mm 812 W/m2
10:26 54.3 °F /  12.4 °C 38.9 °F /  3.8 °C 30.31 in /  1026.3 hPa NW 6.0 mph /  9.7 km/h 11.0 mph /  17.7 km/h 56 % 0.00 in /  0 mm 163 W/m2
10:31 54.1 °F /  12.3 °C 38.3 °F /  3.5 °C 30.31 in /  1026.3 hPa NW 5.0 mph /  8 km/h 11.0 mph /  17.7 km/h 55 % 0.00 in /  0 mm 796 W/m2
10:36 54.3 °F /  12.4 °C 38.9 °F /  3.8 °C 30.31 in /  1026.3 hPa West 4.0 mph /  6.4 km/h 9.0 mph /  14.5 km/h 56 % 0.00 in /  0 mm 858 W/m2
10:41 55.0 °F /  12.8 °C 40.1 °F /  4.5 °C 30.30 in /  1026 hPa West 5.0 mph /  8 km/h 10.0 mph /  16.1 km/h 57 % 0.00 in /  0 mm 671 W/m2
10:46 55.8 °F /  13.2 °C 39.4 °F /  4.1 °C 30.30 in /  1026 hPa WNW 6.0 mph /  9.7 km/h 10.0 mph /  16.1 km/h 54 % 0.00 in /  0 mm 714 W/m2
10:51 55.6 °F /  13.1 °C 38.2 °F /  3.4 °C 30.30 in /  1026 hPa West 6.0 mph /  9.7 km/h 10.0 mph /  16.1 km/h 52 % 0.00 in /  0 mm 253 W/m2
10:56 55.6 °F /  13.1 °C 38.7 °F /  3.7 °C 30.30 in /  1026 hPa WNW 4.0 mph /  6.4 km/h 9.0 mph /  14.5 km/h 53 % 0.00 in /  0 mm 812 W/m2
11:01 55.9 °F /  13.3 °C 38.6 °F /  3.7 °C 30.30 in /  1026 hPa WNW 3.0 mph /  4.8 km/h 8.0 mph /  12.9 km/h 52 % 0.00 in /  0 mm 840 W/m2
11:06 56.5 °F /  13.6 °C 38.6 °F /  3.7 °C 30.30 in /  1026 hPa West 4.0 mph /  6.4 km/h 9.0 mph /  14.5 km/h 51 % 0.00 in /  0 mm 870 W/m2
11:12 57.0 °F /  13.9 °C 38.5 °F /  3.6 °C 30.29 in /  1025.6 hPa WNW 3.0 mph /  4.8 km/h 9.0 mph /  14.5 km/h 50 % 0.00 in /  0 mm 921 W/m2
11:17 57.0 °F /  13.9 °C 38.5 °F /  3.6 °C 30.29 in /  1025.6 hPa WNW 3.0 mph /  4.8 km/h 12.0 mph /  19.3 km/h 50 % 0.00 in /  0 mm 288 W/m2
11:22 56.8 °F /  13.8 °C 38.4 °F /  3.6 °C 30.29 in /  1025.6 hPa WNW 5.0 mph /  8 km/h 15.0 mph /  24.1 km/h 50 % 0.00 in /  0 mm 278 W/m2
11:27 56.5 °F /  13.6 °C 38.6 °F /  3.7 °C 30.29 in /  1025.6 hPa WNW 5.0 mph /  8 km/h 15.0 mph /  24.1 km/h 51 % 0.00 in /  0 mm 366 W/m2
11:32 56.5 °F /  13.6 °C 39.5 °F /  4.2 °C 30.29 in /  1025.6 hPa West 4.0 mph /  6.4 km/h 11.0 mph /  17.7 km/h 53 % 0.00 in /  0 mm 1007 W/m2
11:37 56.8 °F /  13.8 °C 38.9 °F /  3.8 °C 30.29 in /  1025.6 hPa West 6.0 mph /  9.7 km/h 13.0 mph /  20.9 km/h 51 % 0.00 in /  0 mm 399 W/m2
11:42 56.7 °F /  13.7 °C 38.2 °F /  3.4 °C 30.29 in /  1025.6 hPa WNW 7.0 mph /  11.3 km/h 13.0 mph /  20.9 km/h 50 % 0.00 in /  0 mm 290 W/m2
11:47 56.3 °F /  13.5 °C 38.4 °F /  3.6 °C 30.29 in /  1025.6 hPa WNW 7.0 mph /  11.3 km/h 12.0 mph /  19.3 km/h 51 % 0.00 in /  0 mm 362 W/m2
11:52 56.1 °F /  13.4 °C 38.7 °F /  3.7 °C 30.28 in /  1025.3 hPa West 6.0 mph /  9.7 km/h 12.0 mph /  19.3 km/h 52 % 0.00 in /  0 mm 415 W/m2
11:57 56.3 °F /  13.5 °C 39.4 °F /  4.1 °C 30.28 in /  1025.3 hPa West 5.0 mph /  8 km/h 11.0 mph /  17.7 km/h 53 % 0.00 in /  0 mm 796 W/m2
12:02 56.7 °F /  13.7 °C 38.7 °F /  3.7 °C 30.28 in /  1025.3 hPa WNW 5.0 mph /  8 km/h 14.0 mph /  22.5 km/h 51 % 0.00 in /  0 mm 842 W/m2
12:07 56.7 °F /  13.7 °C 38.7 °F /  3.7 °C 30.28 in /  1025.3 hPa West 7.0 mph /  11.3 km/h 14.0 mph /  22.5 km/h 51 % 0.00 in /  0 mm 292 W/m2
12:12 56.3 °F /  13.5 °C 37.9 °F /  3.3 °C 30.28 in /  1025.3 hPa West 7.0 mph /  11.3 km/h 13.0 mph /  20.9 km/h 50 % 0.00 in /  0 mm 846 W/m2
12:17 56.7 °F /  13.7 °C 38.7 °F /  3.7 °C 30.27 in /  1024.9 hPa West 6.0 mph /  9.7 km/h 13.0 mph /  20.9 km/h 51 % 0.00 in /  0 mm 860 W/m2
12:22 57.0 °F /  13.9 °C 39.1 °F /  3.9 °C 30.27 in /  1024.9 hPa West 5.0 mph /  8 km/h 13.0 mph /  20.9 km/h 51 % 0.00 in /  0 mm 842 W/m2
12:27 57.4 °F /  14.1 °C 39.4 °F /  4.1 °C 30.27 in /  1024.9 hPa West 5.0 mph /  8 km/h 20.0 mph /  32.2 km/h 51 % 0.00 in /  0 mm 902 W/m2
12:32 57.9 °F /  14.4 °C 38.9 °F /  3.8 °C 30.27 in /  1024.9 hPa West 7.0 mph /  11.3 km/h 20.0 mph /  32.2 km/h 49 % 0.00 in /  0 mm 826 W/m2
12:37 58.3 °F /  14.6 °C 39.2 °F /  4 °C 30.27 in /  1024.9 hPa WNW 7.0 mph /  11.3 km/h 16.0 mph /  25.7 km/h 49 % 0.00 in /  0 mm 868 W/m2
12:42 58.5 °F /  14.7 °C 38.8 °F /  3.8 °C 30.27 in /  1024.9 hPa West 6.0 mph /  9.7 km/h 13.0 mph /  20.9 km/h 48 % 0.00 in /  0 mm 854 W/m2
12:47 58.8 °F /  14.9 °C 38.6 °F /  3.7 °C 30.26 in /  1024.6 hPa WNW 7.0 mph /  11.3 km/h 12.0 mph /  19.3 km/h 47 % 0.00 in /  0 mm 867 W/m2
12:52 59.2 °F /  15.1 °C 38.4 °F /  3.6 °C 30.26 in /  1024.6 hPa West 6.0 mph /  9.7 km/h 12.0 mph /  19.3 km/h 46 % 0.00 in /  0 mm 886 W/m2
12:57 59.4 °F /  15.2 °C 39.1 °F /  3.9 °C 30.26 in /  1024.6 hPa West 6.0 mph /  9.7 km/h 12.0 mph /  19.3 km/h 47 % 0.00 in /  0 mm 888 W/m2
13:02 59.2 °F /  15.1 °C 37.8 °F /  3.2 °C 30.26 in /  1024.6 hPa West 7.0 mph /  11.3 km/h 13.0 mph /  20.9 km/h 45 % 0.00 in /  0 mm 151 W/m2
13:07 58.8 °F /  14.9 °C 37.5 °F /  3.1 °C 30.25 in /  1024.3 hPa West 8.0 mph /  12.9 km/h 15.0 mph /  24.1 km/h 45 % 0.00 in /  0 mm 891 W/m2
13:12 58.8 °F /  14.9 °C 38.1 °F /  3.4 °C 30.25 in /  1024.3 hPa West 7.0 mph /  11.3 km/h 15.0 mph /  24.1 km/h 46 % 0.00 in /  0 mm 900 W/m2
13:18 58.6 °F /  14.8 °C 39.0 °F /  3.9 °C 30.25 in /  1024.3 hPa WSW 7.0 mph /  11.3 km/h 13.0 mph /  20.9 km/h 48 % 0.00 in /  0 mm 926 W/m2
13:23 58.6 °F /  14.8 °C 39.5 °F /  4.2 °C 30.25 in /  1024.3 hPa West 7.0 mph /  11.3 km/h 14.0 mph /  22.5 km/h 49 % 0.00 in /  0 mm 188 W/m2
13:28 58.8 °F /  14.9 °C 38.6 °F /  3.7 °C 30.25 in /  1024.3 hPa WNW 7.0 mph /  11.3 km/h 14.0 mph /  22.5 km/h 47 % 0.00 in /  0 mm 216 W/m2
13:33 58.6 °F /  14.8 °C 37.9 °F /  3.3 °C 30.25 in /  1024.3 hPa West 8.0 mph /  12.9 km/h 13.0 mph /  20.9 km/h 46 % 0.00 in /  0 mm 874 W/m2
13:34 58.6 °F /  14.8 °C 37.9 °F /  3.3 °C 30.24 in /  1023.9 hPa West 8.0 mph /  12.9 km/h 13.0 mph /  20.9 km/h 46 % 0.00 in /  0 mm 874 W/m2
13:39 58.5 °F /  14.7 °C 38.3 °F /  3.5 °C 30.25 in /  1024.3 hPa West 7.0 mph /  11.3 km/h 12.0 mph /  19.3 km/h 47 % 0.00 in /  0 mm 264 W/m2
13:44 58.5 °F /  14.7 °C 38.8 °F /  3.8 °C 30.24 in /  1023.9 hPa West 6.0 mph /  9.7 km/h 13.0 mph /  20.9 km/h 48 % 0.00 in /  0 mm 937 W/m2
13:49 58.5 °F /  14.7 °C 38.3 °F /  3.5 °C 30.24 in /  1023.9 hPa West 6.0 mph /  9.7 km/h 13.0 mph /  20.9 km/h 47 % 0.00 in /  0 mm 216 W/m2
13:54 58.6 °F /  14.8 °C 39.5 °F /  4.2 °C 30.24 in /  1023.9 hPa WNW 7.0 mph /  11.3 km/h 12.0 mph /  19.3 km/h 49 % 0.00 in /  0 mm 849 W/m2
13:59 59.0 °F /  15 °C 39.3 °F /  4.1 °C 30.24 in /  1023.9 hPa WNW 8.0 mph /  12.9 km/h 15.0 mph /  24.1 km/h 48 % 0.00 in /  0 mm 865 W/m2
14:04 59.2 °F /  15.1 °C 38.9 °F /  3.8 °C 30.24 in /  1023.9 hPa WNW 8.0 mph /  12.9 km/h 15.0 mph /  24.1 km/h 47 % 0.00 in /  0 mm 824 W/m2
14:09 59.5 °F /  15.3 °C 39.3 °F /  4.1 °C 30.24 in /  1023.9 hPa WNW 7.0 mph /  11.3 km/h 13.0 mph /  20.9 km/h 47 % 0.00 in /  0 mm 833 W/m2
14:14 59.9 °F /  15.5 °C 40.1 °F /  4.5 °C 30.23 in /  1023.6 hPa WNW 7.0 mph /  11.3 km/h 13.0 mph /  20.9 km/h 48 % 0.00 in /  0 mm 853 W/m2
14:19 59.9 °F /  15.5 °C 39.1 °F /  3.9 °C 30.23 in /  1023.6 hPa WNW 9.0 mph /  14.5 km/h 14.0 mph /  22.5 km/h 46 % 0.00 in /  0 mm 216 W/m2
14:24 59.5 °F /  15.3 °C 38.7 °F /  3.7 °C 30.23 in /  1023.6 hPa WNW 8.0 mph /  12.9 km/h 14.0 mph /  22.5 km/h 46 % 0.00 in /  0 mm 844 W/m2
14:29 59.4 °F /  15.2 °C 39.1 °F /  3.9 °C 30.23 in /  1023.6 hPa West 8.0 mph /  12.9 km/h 15.0 mph /  24.1 km/h 47 % 0.00 in /  0 mm 244 W/m2
14:34 59.0 °F /  15 °C 39.3 °F /  4.1 °C 30.23 in /  1023.6 hPa WNW 8.0 mph /  12.9 km/h 15.0 mph /  24.1 km/h 48 % 0.00 in /  0 mm 207 W/m2
14:39 58.8 °F /  14.9 °C 38.6 °F /  3.7 °C 30.22 in /  1023.2 hPa WNW 6.0 mph /  9.7 km/h 13.0 mph /  20.9 km/h 47 % 0.00 in /  0 mm 225 W/m2
14:44 58.6 °F /  14.8 °C 38.5 °F /  3.6 °C 30.22 in /  1023.2 hPa WNW 6.0 mph /  9.7 km/h 11.0 mph /  17.7 km/h 47 % 0.00 in /  0 mm 265 W/m2
14:49 58.6 °F /  14.8 °C 39.0 °F /  3.9 °C 30.22 in /  1023.2 hPa WNW 7.0 mph /  11.3 km/h 11.0 mph /  17.7 km/h 48 % 0.00 in /  0 mm 838 W/m2
14:54 58.6 °F /  14.8 °C 39.0 °F /  3.9 °C 30.22 in /  1023.2 hPa WNW 6.0 mph /  9.7 km/h 11.0 mph /  17.7 km/h 48 % 0.00 in /  0 mm 844 W/m2
14:59 59.2 °F /  15.1 °C 39.5 °F /  4.2 °C 30.22 in /  1023.2 hPa West 7.0 mph /  11.3 km/h 16.0 mph /  25.7 km/h 48 % 0.00 in /  0 mm 772 W/m2
15:04 59.4 °F /  15.2 °C 39.1 °F /  3.9 °C 30.21 in /  1022.9 hPa West 9.0 mph /  14.5 km/h 18.0 mph /  29 km/h 47 % 0.00 in /  0 mm 207 W/m2
15:10 59.4 °F /  15.2 °C 39.7 °F /  4.3 °C 30.21 in /  1022.9 hPa West 8.0 mph /  12.9 km/h 16.0 mph /  25.7 km/h 48 % 0.00 in /  0 mm 809 W/m2
15:15 59.4 °F /  15.2 °C 39.1 °F /  3.9 °C 30.21 in /  1022.9 hPa West 9.0 mph /  14.5 km/h 14.0 mph /  22.5 km/h 47 % 0.00 in /  0 mm 807 W/m2
15:20 59.2 °F /  15.1 °C 39.5 °F /  4.2 °C 30.21 in /  1022.9 hPa West 9.0 mph /  14.5 km/h 15.0 mph /  24.1 km/h 48 % 0.00 in /  0 mm 134 W/m2
15:25 59.2 °F /  15.1 °C 39.5 °F /  4.2 °C 30.21 in /  1022.9 hPa West 9.0 mph /  14.5 km/h 18.0 mph /  29 km/h 48 % 0.00 in /  0 mm 729 W/m2
15:30 59.4 °F /  15.2 °C 39.1 °F /  3.9 °C 30.21 in /  1022.9 hPa West 8.0 mph /  12.9 km/h 18.0 mph /  29 km/h 47 % 0.00 in /  0 mm 687 W/m2
15:35 59.5 °F /  15.3 °C 39.3 °F /  4.1 °C 30.20 in /  1022.6 hPa West 9.0 mph /  14.5 km/h 16.0 mph /  25.7 km/h 47 % 0.00 in /  0 mm 684 W/m2
15:40 60.3 °F /  15.7 °C 40.5 °F /  4.7 °C 30.20 in /  1022.6 hPa WNW 8.0 mph /  12.9 km/h 16.0 mph /  25.7 km/h 48 % 0.00 in /  0 mm 642 W/m2
15:45 60.4 °F /  15.8 °C 39.0 °F /  3.9 °C 30.20 in /  1022.6 hPa WNW 9.0 mph /  14.5 km/h 16.0 mph /  25.7 km/h 45 % 0.00 in /  0 mm 654 W/m2
15:50 60.4 °F /  15.8 °C 39.5 °F /  4.2 °C 30.20 in /  1022.6 hPa WNW 9.0 mph /  14.5 km/h 16.0 mph /  25.7 km/h 46 % 0.00 in /  0 mm 643 W/m2
15:55 60.4 °F /  15.8 °C 39.5 °F /  4.2 °C 30.20 in /  1022.6 hPa WNW 9.0 mph /  14.5 km/h 18.0 mph /  29 km/h 46 % 0.00 in /  0 mm 615 W/m2
16:00 60.3 °F /  15.7 °C 38.8 °F /  3.8 °C 30.20 in /  1022.6 hPa West 9.0 mph /  14.5 km/h 18.0 mph /  29 km/h 45 % 0.00 in /  0 mm 638 W/m2
16:05 60.3 °F /  15.7 °C 39.4 °F /  4.1 °C 30.20 in /  1022.6 hPa WNW 9.0 mph /  14.5 km/h 15.0 mph /  24.1 km/h 46 % 0.00 in /  0 mm 612 W/m2
16:10 60.4 °F /  15.8 °C 39.5 °F /  4.2 °C 30.19 in /  1022.2 hPa WNW 8.0 mph /  12.9 km/h 15.0 mph /  24.1 km/h 46 % 0.00 in /  0 mm 527 W/m2
16:15 60.4 °F /  15.8 °C 39.0 °F /  3.9 °C 30.19 in /  1022.2 hPa WNW 8.0 mph /  12.9 km/h 18.0 mph /  29 km/h 45 % 0.00 in /  0 mm 548 W/m2
16:20 59.7 °F /  15.4 °C 38.9 °F /  3.8 °C 30.19 in /  1022.2 hPa West 10.0 mph /  16.1 km/h 18.0 mph /  29 km/h 46 % 0.00 in /  0 mm 548 W/m2
16:25 59.4 °F /  15.2 °C 38.6 °F /  3.7 °C 30.19 in /  1022.2 hPa WNW 10.0 mph /  16.1 km/h 18.0 mph /  29 km/h 46 % 0.00 in /  0 mm 557 W/m2
16:30 59.5 °F /  15.3 °C 39.3 °F /  4.1 °C 30.19 in /  1022.2 hPa WNW 10.0 mph /  16.1 km/h 18.0 mph /  29 km/h 47 % 0.00 in /  0 mm 545 W/m2
16:35 59.5 °F /  15.3 °C 39.3 °F /  4.1 °C 30.19 in /  1022.2 hPa WNW 10.0 mph /  16.1 km/h 16.0 mph /  25.7 km/h 47 % 0.00 in /  0 mm 536 W/m2
16:40 59.5 °F /  15.3 °C 38.7 °F /  3.7 °C 30.19 in /  1022.2 hPa WNW 10.0 mph /  16.1 km/h 18.0 mph /  29 km/h 46 % 0.00 in /  0 mm 519 W/m2
16:45 59.4 °F /  15.2 °C 39.1 °F /  3.9 °C 30.18 in /  1021.9 hPa WNW 10.0 mph /  16.1 km/h 18.0 mph /  29 km/h 47 % 0.00 in /  0 mm 492 W/m2
16:50 59.2 °F /  15.1 °C 38.9 °F /  3.8 °C 30.18 in /  1021.9 hPa WNW 9.0 mph /  14.5 km/h 16.0 mph /  25.7 km/h 47 % 0.00 in /  0 mm 455 W/m2
16:55 59.2 °F /  15.1 °C 38.9 °F /  3.8 °C 30.18 in /  1021.9 hPa WNW 10.0 mph /  16.1 km/h 18.0 mph /  29 km/h 47 % 0.00 in /  0 mm 462 W/m2
17:00 59.0 °F /  15 °C 39.9 °F /  4.4 °C 30.18 in /  1021.9 hPa WNW 10.0 mph /  16.1 km/h 18.0 mph /  29 km/h 49 % 0.00 in /  0 mm 427 W/m2
17:05 58.6 °F /  14.8 °C 38.5 °F /  3.6 °C 30.18 in /  1021.9 hPa West 10.0 mph /  16.1 km/h 16.0 mph /  25.7 km/h 47 % 0.00 in /  0 mm 399 W/m2
17:10 58.5 °F /  14.7 °C 38.8 °F /  3.8 °C 30.18 in /  1021.9 hPa West 9.0 mph /  14.5 km/h 18.0 mph /  29 km/h 48 % 0.00 in /  0 mm 343 W/m2
17:15 58.5 °F /  14.7 °C 38.8 °F /  3.8 °C 30.18 in /  1021.9 hPa West 8.0 mph /  12.9 km/h 18.0 mph /  29 km/h 48 % 0.00 in /  0 mm 425 W/m2
17:20 58.6 °F /  14.8 °C 38.5 °F /  3.6 °C 30.18 in /  1021.9 hPa WNW 9.0 mph /  14.5 km/h 18.0 mph /  29 km/h 47 % 0.00 in /  0 mm 429 W/m2
17:25 58.6 °F /  14.8 °C 38.5 °F /  3.6 °C 30.17 in /  1021.6 hPa WNW 11.0 mph /  17.7 km/h 18.0 mph /  29 km/h 47 % 0.00 in /  0 mm 406 W/m2
17:30 58.6 °F /  14.8 °C 37.3 °F /  2.9 °C 30.17 in /  1021.6 hPa West 10.0 mph /  16.1 km/h 16.0 mph /  25.7 km/h 45 % 0.00 in /  0 mm 392 W/m2
17:35 58.5 °F /  14.7 °C 36.6 °F /  2.6 °C 30.17 in /  1021.6 hPa West 9.0 mph /  14.5 km/h 16.0 mph /  25.7 km/h 44 % 0.00 in /  0 mm 378 W/m2
17:40 58.5 °F /  14.7 °C 36.0 °F /  2.2 °C 30.17 in /  1021.6 hPa WNW 9.0 mph /  14.5 km/h 16.0 mph /  25.7 km/h 43 % 0.00 in /  0 mm 362 W/m2
17:45 58.5 °F /  14.7 °C 35.4 °F /  1.9 °C 30.17 in /  1021.6 hPa WNW 10.0 mph /  16.1 km/h 16.0 mph /  25.7 km/h 42 % 0.00 in /  0 mm 346 W/m2
17:50 58.3 °F /  14.6 °C 34.7 °F /  1.5 °C 30.17 in /  1021.6 hPa West 9.0 mph /  14.5 km/h 16.0 mph /  25.7 km/h 41 % 0.00 in /  0 mm 334 W/m2
17:55 58.3 °F /  14.6 °C 34.0 °F /  1.1 °C 30.17 in /  1021.6 hPa West 9.0 mph /  14.5 km/h 16.0 mph /  25.7 km/h 40 % 0.00 in /  0 mm 318 W/m2
18:00 58.3 °F /  14.6 °C 34.7 °F /  1.5 °C 30.17 in /  1021.6 hPa WNW 9.0 mph /  14.5 km/h 14.0 mph /  22.5 km/h 41 % 0.00 in /  0 mm 306 W/m2
18:05 58.5 °F /  14.7 °C 34.8 °F /  1.6 °C 30.16 in /  1021.2 hPa WNW 9.0 mph /  14.5 km/h 14.0 mph /  22.5 km/h 41 % 0.00 in /  0 mm 287 W/m2
18:10 58.5 °F /  14.7 °C 34.8 °F /  1.6 °C 30.16 in /  1021.2 hPa West 8.0 mph /  12.9 km/h 14.0 mph /  22.5 km/h 41 % 0.00 in /  0 mm 272 W/m2
18:16 58.5 °F /  14.7 °C 36.0 °F /  2.2 °C 30.16 in /  1021.2 hPa West 8.0 mph /  12.9 km/h 14.0 mph /  22.5 km/h 43 % 0.00 in /  0 mm 258 W/m2
18:21 58.5 °F /  14.7 °C 36.0 °F /  2.2 °C 30.16 in /  1021.2 hPa WNW 8.0 mph /  12.9 km/h 15.0 mph /  24.1 km/h 43 % 0.00 in /  0 mm 243 W/m2
18:26 58.1 °F /  14.5 °C 36.3 °F /  2.4 °C 30.16 in /  1021.2 hPa WNW 9.0 mph /  14.5 km/h 18.0 mph /  29 km/h 44 % 0.00 in /  0 mm 229 W/m2
18:31 57.6 °F /  14.2 °C 35.8 °F /  2.1 °C 30.16 in /  1021.2 hPa WNW 11.0 mph /  17.7 km/h 18.0 mph /  29 km/h 44 % 0.00 in /  0 mm 218 W/m2
18:36 57.4 °F /  14.1 °C 34.5 °F /  1.4 °C 30.16 in /  1021.2 hPa WNW 10.0 mph /  16.1 km/h 19.0 mph /  30.6 km/h 42 % 0.00 in /  0 mm 200 W/m2
18:41 57.0 °F /  13.9 °C 34.7 °F /  1.5 °C 30.16 in /  1021.2 hPa WNW 10.0 mph /  16.1 km/h 19.0 mph /  30.6 km/h 43 % 0.00 in /  0 mm 190 W/m2
18:46 56.8 °F /  13.8 °C 35.1 °F /  1.7 °C 30.16 in /  1021.2 hPa WNW 10.0 mph /  16.1 km/h 16.0 mph /  25.7 km/h 44 % 0.00 in /  0 mm 174 W/m2
18:51 56.7 °F /  13.7 °C 35.5 °F /  1.9 °C 30.16 in /  1021.2 hPa WNW 9.0 mph /  14.5 km/h 16.0 mph /  25.7 km/h 45 % 0.00 in /  0 mm 165 W/m2
18:56 56.3 °F /  13.5 °C 35.8 °F /  2.1 °C 30.15 in /  1020.9 hPa WNW 9.0 mph /  14.5 km/h 15.0 mph /  24.1 km/h 46 % 0.00 in /  0 mm 146 W/m2
19:01 55.8 °F /  13.2 °C 34.2 °F /  1.2 °C 30.15 in /  1020.9 hPa West 10.0 mph /  16.1 km/h 16.0 mph /  25.7 km/h 44 % 0.00 in /  0 mm 125 W/m2
19:06 55.2 °F /  12.9 °C 34.8 °F /  1.6 °C 30.15 in /  1020.9 hPa West 10.0 mph /  16.1 km/h 19.0 mph /  30.6 km/h 46 % 0.00 in /  0 mm 114 W/m2
19:11 54.9 °F /  12.7 °C 34.5 °F /  1.4 °C 30.15 in /  1020.9 hPa West 10.0 mph /  16.1 km/h 20.0 mph /  32.2 km/h 46 % 0.00 in /  0 mm 111 W/m2
19:16 54.7 °F /  12.6 °C 34.3 °F /  1.3 °C 30.15 in /  1020.9 hPa WNW 11.0 mph /  17.7 km/h 21.0 mph /  33.8 km/h 46 % 0.00 in /  0 mm 86 W/m2
19:21 54.1 °F /  12.3 °C 34.3 °F /  1.3 °C 30.15 in /  1020.9 hPa West 11.0 mph /  17.7 km/h 21.0 mph /  33.8 km/h 47 % 0.00 in /  0 mm 83 W/m2
19:26 53.6 °F /  12 °C 34.4 °F /  1.3 °C 30.15 in /  1020.9 hPa West 10.0 mph /  16.1 km/h 20.0 mph /  32.2 km/h 48 % 0.00 in /  0 mm 65 W/m2
19:31 53.1 °F /  11.7 °C 34.4 °F /  1.3 °C 30.15 in /  1020.9 hPa WNW 10.0 mph /  16.1 km/h 18.0 mph /  29 km/h 49 % 0.00 in /  0 mm 47 W/m2
19:36 52.7 °F /  11.5 °C 34.1 °F /  1.2 °C 30.15 in /  1020.9 hPa WNW 11.0 mph /  17.7 km/h 20.0 mph /  32.2 km/h 49 % 0.00 in /  0 mm 46 W/m2
19:41 52.2 °F /  11.2 °C 33.6 °F /  0.9 °C 30.15 in /  1020.9 hPa West 11.0 mph /  17.7 km/h 20.0 mph /  32.2 km/h 49 % 0.00 in /  0 mm 25 W/m2
19:46 51.6 °F /  10.9 °C 34.1 °F /  1.2 °C 30.15 in /  1020.9 hPa West 12.0 mph /  19.3 km/h 20.0 mph /  32.2 km/h 51 % 0.00 in /  0 mm 21 W/m2
19:51 51.4 °F /  10.8 °C 34.9 °F /  1.6 °C 30.15 in /  1020.9 hPa West 9.0 mph /  14.5 km/h 20.0 mph /  32.2 km/h 53 % 0.00 in /  0 mm 21 W/m2
19:56 51.1 °F /  10.6 °C 35.0 °F /  1.7 °C 30.15 in /  1020.9 hPa West 7.0 mph /  11.3 km/h 15.0 mph /  24.1 km/h 54 % 0.00 in /  0 mm 18 W/m2
20:01 50.7 °F /  10.4 °C 34.7 °F /  1.5 °C 30.15 in /  1020.9 hPa WNW 9.0 mph /  14.5 km/h 15.0 mph /  24.1 km/h 54 % 0.00 in /  0 mm 16 W/m2
20:06 50.4 °F /  10.2 °C 34.8 °F /  1.6 °C 30.15 in /  1020.9 hPa WNW 9.0 mph /  14.5 km/h 19.0 mph /  30.6 km/h 55 % 0.00 in /  0 mm 12 W/m2
20:11 50.2 °F /  10.1 °C 35.5 °F /  1.9 °C 30.15 in /  1020.9 hPa WNW 8.0 mph /  12.9 km/h 19.0 mph /  30.6 km/h 57 % 0.00 in /  0 mm 11 W/m2
20:16 49.8 °F /  9.9 °C 35.2 °F /  1.8 °C 30.15 in /  1020.9 hPa WNW 7.0 mph /  11.3 km/h 13.0 mph /  20.9 km/h 57 % 0.00 in /  0 mm 7 W/m2
20:21 49.5 °F /  9.7 °C 35.7 °F /  2.1 °C 30.15 in /  1020.9 hPa West 6.0 mph /  9.7 km/h 13.0 mph /  20.9 km/h 59 % 0.00 in /  0 mm 5 W/m2
20:26 49.3 °F /  9.6 °C 36.0 °F /  2.2 °C 30.15 in /  1020.9 hPa West 6.0 mph /  9.7 km/h 13.0 mph /  20.9 km/h 60 % 0.00 in /  0 mm 0 W/m2
20:31 48.9 °F /  9.4 °C 36.1 °F /  2.3 °C 30.14 in /  1020.5 hPa West 6.0 mph /  9.7 km/h 13.0 mph /  20.9 km/h 61 % 0.00 in /  0 mm 0 W/m2
20:36 48.7 °F /  9.3 °C 36.3 °F /  2.4 °C 30.15 in /  1020.9 hPa WNW 6.0 mph /  9.7 km/h 13.0 mph /  20.9 km/h 62 % 0.00 in /  0 mm 0 W/m2
20:41 48.4 °F /  9.1 °C 36.8 °F /  2.7 °C 30.15 in /  1020.9 hPa WNW 6.0 mph /  9.7 km/h 13.0 mph /  20.9 km/h 64 % 0.00 in /  0 mm 0 W/m2
20:46 48.2 °F /  9 °C 37.0 °F /  2.8 °C 30.14 in /  1020.5 hPa WNW 6.0 mph /  9.7 km/h 11.0 mph /  17.7 km/h 65 % 0.00 in /  0 mm 0 W/m2
20:51 48.0 °F /  8.9 °C 37.2 °F /  2.9 °C 30.15 in /  1020.9 hPa WNW 6.0 mph /  9.7 km/h 11.0 mph /  17.7 km/h 66 % 0.00 in /  0 mm 0 W/m2
20:56 47.8 °F /  8.8 °C 37.0 °F /  2.8 °C 30.15 in /  1020.9 hPa WNW 6.0 mph /  9.7 km/h 10.0 mph /  16.1 km/h 66 % 0.00 in /  0 mm 0 W/m2
21:01 47.7 °F /  8.7 °C 37.2 °F /  2.9 °C 30.15 in /  1020.9 hPa WNW 5.0 mph /  8 km/h 10.0 mph /  16.1 km/h 67 % 0.00 in /  0 mm 0 W/m2
21:06 47.7 °F /  8.7 °C 37.6 °F /  3.1 °C 30.15 in /  1020.9 hPa WNW 3.0 mph /  4.8 km/h 9.0 mph /  14.5 km/h 68 % 0.00 in /  0 mm 0 W/m2
21:11 47.5 °F /  8.6 °C 37.4 °F /  3 °C 30.15 in /  1020.9 hPa WNW 3.0 mph /  4.8 km/h 7.0 mph /  11.3 km/h 68 % 0.00 in /  0 mm 0 W/m2
21:16 47.1 °F /  8.4 °C 37.1 °F /  2.8 °C 30.15 in /  1020.9 hPa WNW 3.0 mph /  4.8 km/h 7.0 mph /  11.3 km/h 68 % 0.00 in /  0 mm 0 W/m2
21:21 46.9 °F /  8.3 °C 37.3 °F /  2.9 °C 30.14 in /  1020.5 hPa WNW 2.0 mph /  3.2 km/h 5.0 mph /  8 km/h 69 % 0.00 in /  0 mm 0 W/m2
21:26 46.8 °F /  8.2 °C 37.5 °F /  3.1 °C 30.14 in /  1020.5 hPa WNW 2.0 mph /  3.2 km/h 5.0 mph /  8 km/h 70 % 0.00 in /  0 mm 0 W/m2
21:31 46.6 °F /  8.1 °C 37.3 °F /  2.9 °C 30.14 in /  1020.5 hPa WNW 2.0 mph /  3.2 km/h 5.0 mph /  8 km/h 70 % 0.00 in /  0 mm 0 W/m2
21:36 46.4 °F /  8 °C 37.5 °F /  3.1 °C 30.14 in /  1020.5 hPa WNW 3.0 mph /  4.8 km/h 8.0 mph /  12.9 km/h 71 % 0.00 in /  0 mm 0 W/m2
21:41 46.2 °F /  7.9 °C 37.7 °F /  3.2 °C 30.14 in /  1020.5 hPa WNW 3.0 mph /  4.8 km/h 8.0 mph /  12.9 km/h 72 % 0.00 in /  0 mm 0 W/m2
21:46 46.0 °F /  7.8 °C 37.9 °F /  3.3 °C 30.14 in /  1020.5 hPa WNW 4.0 mph /  6.4 km/h 9.0 mph /  14.5 km/h 73 % 0.00 in /  0 mm 0 W/m2
21:51 46.0 °F /  7.8 °C 37.9 °F /  3.3 °C 30.14 in /  1020.5 hPa WNW 4.0 mph /  6.4 km/h 9.0 mph /  14.5 km/h 73 % 0.00 in /  0 mm 0 W/m2
21:57 45.9 °F /  7.7 °C 38.0 °F /  3.3 °C 30.14 in /  1020.5 hPa WNW 5.0 mph /  8 km/h 7.0 mph /  11.3 km/h 74 % 0.00 in /  0 mm 0 W/m2
22:02 45.9 °F /  7.7 °C 38.0 °F /  3.3 °C 30.14 in /  1020.5 hPa WNW 4.0 mph /  6.4 km/h 8.0 mph /  12.9 km/h 74 % 0.00 in /  0 mm 0 W/m2
22:07 45.7 °F /  7.6 °C 38.2 °F /  3.4 °C 30.14 in /  1020.5 hPa WNW 5.0 mph /  8 km/h 9.0 mph /  14.5 km/h 75 % 0.00 in /  0 mm 0 W/m2
22:08 45.7 °F /  7.6 °C 38.2 °F /  3.4 °C 30.13 in /  1020.2 hPa WNW 5.0 mph /  8 km/h 9.0 mph /  14.5 km/h 75 % 0.00 in /  0 mm 0 W/m2
22:13 45.7 °F /  7.6 °C 38.5 °F /  3.6 °C 30.13 in /  1020.2 hPa WNW 4.0 mph /  6.4 km/h 9.0 mph /  14.5 km/h 76 % 0.00 in /  0 mm 0 W/m2
22:14 45.7 °F /  7.6 °C 38.5 °F /  3.6 °C 30.13 in /  1020.2 hPa WNW 4.0 mph /  6.4 km/h 9.0 mph /  14.5 km/h 76 % 0.00 in /  0 mm 0 W/m2
22:19 45.5 °F /  7.5 °C 38.4 °F /  3.6 °C 30.13 in /  1020.2 hPa WNW 3.0 mph /  4.8 km/h 8.0 mph /  12.9 km/h 76 % 0.00 in /  0 mm 0 W/m2
22:24 45.3 °F /  7.4 °C 38.2 °F /  3.4 °C 30.13 in /  1020.2 hPa WNW 3.0 mph /  4.8 km/h 7.0 mph /  11.3 km/h 76 % 0.00 in /  0 mm 0 W/m2
22:29 45.3 °F /  7.4 °C 38.5 °F /  3.6 °C 30.12 in /  1019.9 hPa West 3.0 mph /  4.8 km/h 7.0 mph /  11.3 km/h 77 % 0.00 in /  0 mm 0 W/m2
22:34 45.3 °F /  7.4 °C 38.5 °F /  3.6 °C 30.13 in /  1020.2 hPa West 3.0 mph /  4.8 km/h 7.0 mph /  11.3 km/h 77 % 0.00 in /  0 mm 0 W/m2
22:39 45.1 °F /  7.3 °C 38.7 °F /  3.7 °C 30.13 in /  1020.2 hPa West 4.0 mph /  6.4 km/h 7.0 mph /  11.3 km/h 78 % 0.00 in /  0 mm 0 W/m2
22:44 45.1 °F /  7.3 °C 39.0 °F /  3.9 °C 30.13 in /  1020.2 hPa West 3.0 mph /  4.8 km/h 7.0 mph /  11.3 km/h 79 % 0.00 in /  0 mm 0 W/m2
22:49 45.1 °F /  7.3 °C 39.0 °F /  3.9 °C 30.12 in /  1019.9 hPa West 3.0 mph /  4.8 km/h 7.0 mph /  11.3 km/h 79 % 0.00 in /  0 mm 0 W/m2
22:54 45.0 °F /  7.2 °C 38.8 °F /  3.8 °C 30.12 in /  1019.9 hPa West 3.0 mph /  4.8 km/h 7.0 mph /  11.3 km/h 79 % 0.00 in /  0 mm 0 W/m2
22:59 45.0 °F /  7.2 °C 39.2 °F /  4 °C 30.12 in /  1019.9 hPa West 3.0 mph /  4.8 km/h 6.0 mph /  9.7 km/h 80 % 0.00 in /  0 mm 0 W/m2
23:04 45.0 °F /  7.2 °C 39.5 °F /  4.2 °C 30.12 in /  1019.9 hPa West 2.0 mph /  3.2 km/h 6.0 mph /  9.7 km/h 81 % 0.00 in /  0 mm 0 W/m2
23:09 45.1 °F /  7.3 °C 39.7 °F /  4.3 °C 30.12 in /  1019.9 hPa West 2.0 mph /  3.2 km/h 6.0 mph /  9.7 km/h 81 % 0.00 in /  0 mm 0 W/m2
23:14 45.1 °F /  7.3 °C 39.7 °F /  4.3 °C 30.12 in /  1019.9 hPa WSW 2.0 mph /  3.2 km/h 6.0 mph /  9.7 km/h 81 % 0.00 in /  0 mm 0 W/m2
23:19 45.3 °F /  7.4 °C 39.8 °F /  4.3 °C 30.12 in /  1019.9 hPa Calm   5.0 mph /  8 km/h 81 % 0.00 in /  0 mm 0 W/m2
23:24 45.3 °F /  7.4 °C 40.1 °F /  4.5 °C 30.11 in /  1019.5 hPa Calm     82 % 0.00 in /  0 mm 0 W/m2
23:29 45.3 °F /  7.4 °C 40.1 °F /  4.5 °C 30.11 in /  1019.5 hPa Calm     82 % 0.00 in /  0 mm 0 W/m2
23:34 45.5 °F /  7.5 °C 40.6 °F /  4.8 °C 30.11 in /  1019.5 hPa Calm     83 % 0.00 in /  0 mm 0 W/m2
23:39 45.7 °F /  7.6 °C 40.8 °F /  4.9 °C 30.11 in /  1019.5 hPa Calm     83 % 0.00 in /  0 mm 0 W/m2
23:44 45.9 °F /  7.7 °C 41.0 °F /  5 °C 30.10 in /  1019.2 hPa Calm   2.0 mph /  3.2 km/h 83 % 0.00 in /  0 mm 0 W/m2
23:49 45.9 °F /  7.7 °C 41.0 °F /  5 °C 30.10 in /  1019.2 hPa Calm   2.0 mph /  3.2 km/h 83 % 0.00 in /  0 mm 0 W/m2
23:54 46.2 °F /  7.9 °C 41.7 °F /  5.4 °C 30.10 in /  1019.2 hPa West 2.0 mph /  3.2 km/h 9.0 mph /  14.5 km/h 84 % 0.00 in /  0 mm 0 W/m2
23:59 46.8 °F /  8.2 °C 42.2 °F /  5.7 °C 30.10 in /  1019.2 hPa West 4.0 mph /  6.4 km/h 9.0 mph /  14.5 km/h 84 % 0.00 in /  0 mm 0 W/m2
Delerius-Weather
Compliments of Weather Underground - 2.25 mb

Data updates at regular intervals.